Flight Track Log - Related Links

Times and Time Zones

All times are in EST time to prevent confusion due to time zone crossing. See the UAL4530 flight status page for this flight to view local times or setup timezone preferences in your user account.

Time Position Orientation Groundspeed Altitude Reporting Facility
EST Latitude Longitude Course Direction KTS MPH feet Rate Location/Type
Sat 12:52:55 PM 41.2883 -95.8869 207° Southwest 165 190 1,600  Level Minneapolis Center
Sat 12:53:19 PM 41.2731 -95.8750 150° Southeast 163 188 2,800 2,211 Climbing Minneapolis Center
Sat 12:53:52 PM 41.2539 -95.8703 170° South 158 182 3,700 1,958 Climbing Minneapolis Center
Sat 12:54:54 PM 41.2058 -95.8781 187° South 168 193 5,900 2,081 Climbing Minneapolis Center
Sat 12:55:00 PM 41.0416 -95.8793 207° Southwest  Level Estimated
Sat 12:55:56 PM 41.1547 -95.8886 189° South 176 203 8,000  Level Minneapolis Center
Sat 12:56:00 PM 40.9557 -95.9000 190° South  Level FlightAware Approximate
Sat 12:56:57 PM 41.0994 -95.8953 185° South 187 215 10,500  Level Minneapolis Center
Sat 12:57:00 PM 40.8686 -95.8948 201° Southwest  Level Estimated
Sat 12:57:59 PM 41.0297 -95.9053 186° South 202 232 12,500  Level Minneapolis Center
Sat 12:58:00 PM 40.7880 -95.9392 203° Southwest  Level FlightAware Approximate
Sat 12:59:00 PM 40.7009 -95.9337 207° Southwest  Level Estimated
Sat 12:59:01 PM 40.9633 -95.9139 186° South 227 261 14,000  Level Minneapolis Center
Sat 01:00:04 PM 40.8900 -95.9239 186° South 253 291 15,500 1,392 Climbing Minneapolis Center
Sat 01:01:06 PM 40.8153 -95.9347 186° South 264 304 16,900 1,113 Climbing Minneapolis Center
Sat 01:02:08 PM 40.7381 -95.9453 186° South 274 315 17,800 1,366 Climbing Minneapolis Center
Sat 01:03:09 PM 40.6564 -95.9544 185° South 286 329 19,700 1,854 Climbing Minneapolis Center
Sat 01:04:11 PM 40.5575 -95.9697 187° South 295 339 21,600 1,645 Climbing Minneapolis Center
Sat 01:05:13 PM 40.4758 -95.9811 186° South 296 341 23,100 1,452 Climbing Minneapolis Center
Sat 01:06:15 PM 40.3919 -95.9908 185° South 300 345 24,600 1,500 Climbing Minneapolis Center
Sat 01:07:17 PM 40.3086 -96.0036 187° South 301 346 26,200 1,512 Climbing Minneapolis Center
Sat 01:08:18 PM 40.2267 -96.0133 185° South 298 343 27,700 1,463 Climbing Minneapolis Center
Sat 01:09:20 PM 40.1472 -96.0239 186° South 291 335 29,200 1,466 Climbing Minneapolis Center
Sat 01:10:29 PM 40.0497 -96.0381 186° South 279 321 30,900 1,237 Climbing Kansas City Center
Sat 01:11:31 PM 39.9742 -96.0483 186° South 284 327 31,900 1,016 Climbing Kansas City Center
Sat 01:12:33 PM 39.8833 -96.0608 186° South 293 337 33,000 1,024 Climbing Kansas City Center
Sat 01:13:34 PM 39.8047 -96.0714 186° South 298 343 34,000 1,024 Climbing Kansas City Center
Sat 01:14:36 PM 39.7131 -96.0831 186° South 297 342 35,100 968 Climbing Kansas City Center
Sat 01:15:38 PM 39.6358 -96.0931 186° South 294 338 36,000 435 Climbing Kansas City Center
Sat 01:16:40 PM 39.5428 -96.1058 186° South 299 344 36,000  Level Kansas City Center
Sat 01:17:42 PM 39.4567 -96.1158 185° South 320 368 36,000  Level Kansas City Center
Sat 01:18:44 PM 39.3644 -96.1286 186° South 344 396 36,000  Level Kansas City Center
Sat 01:19:46 PM 39.2497 -96.1433 186° South 370 426 36,000  Level Kansas City Center
Sat 01:20:48 PM 39.1472 -96.1569 186° South 385 443 36,000  Level Kansas City Center
Sat 01:21:49 PM 39.0258 -96.1731 186° South 393 452 36,000  Level Kansas City Center
Sat 01:22:51 PM 38.9225 -96.1856 185° South 391 450 36,000  Level Kansas City Center
Sat 01:23:53 PM 38.8025 -96.2011 186° South 390 449 36,000  Level Kansas City Center
Sat 01:24:55 PM 38.7008 -96.2150 186° South 386 444 36,000  Level Kansas City Center
Sat 01:25:57 PM 38.5844 -96.2292 185° South 378 435 36,000  Level Kansas City Center
Sat 01:26:59 PM 38.4864 -96.2419 186° South 370 426 36,000  Level Kansas City Center
Sat 01:28:00 PM 38.3717 -96.2567 186° South 370 426 36,000  Level Kansas City Center
Sat 01:29:02 PM 38.2761 -96.2692 186° South 362 417 36,000  Level Kansas City Center
Sat 01:30:04 PM 38.1661 -96.2831 186° South 357 411 36,000  Level Kansas City Center
Sat 01:31:06 PM 38.0683 -96.2947 185° South 354 407 36,000  Level Kansas City Center
Sat 01:32:08 PM 37.9722 -96.3069 186° South 347 399 36,000  Level Kansas City Center
Sat 01:33:10 PM 37.8767 -96.3189 186° South 345 397 36,000  Level Kansas City Center
Sat 01:34:11 PM 37.7825 -96.3311 186° South 340 391 36,000  Level Kansas City Center
Sat 01:35:13 PM 37.6889 -96.3422 185° South 337 388 36,000  Level Kansas City Center
Sat 01:36:15 PM 37.5858 -96.3544 185° South 338 389 36,000  Level Kansas City Center
Sat 01:37:17 PM 37.4922 -96.3650 185° South 339 390 36,000  Level Kansas City Center
Sat 01:38:19 PM 37.3972 -96.3769 186° South 340 391 36,000  Level Kansas City Center
Sat 01:39:20 PM 37.3000 -96.3894 186° South 346 398 36,000  Level Kansas City Center
Sat 01:40:22 PM 37.1822 -96.4039 186° South 352 405 36,000  Level Kansas City Center
Sat 01:41:24 PM 37.0847 -96.4169 186° South 352 405 36,000  Level Kansas City Center
Sat 01:42:26 PM 36.9872 -96.4286 185° South 353 406 36,000  Level Kansas City Center
Sat 01:43:27 PM 36.8894 -96.4411 186° South 353 406 36,000  Level Kansas City Center
Sat 01:44:29 PM 36.7928 -96.4517 185° South 351 404 36,000  Level Kansas City Center
Sat 01:45:31 PM 36.6936 -96.4642 186° South 356 410 36,000  Level Kansas City Center
Sat 01:46:33 PM 36.5947 -96.4761 186° South 357 411 36,000  Level Kansas City Center
Sat 01:47:34 PM 36.4775 -96.4894 185° South 354 407 36,000  Level Kansas City Center
Sat 01:48:36 PM 36.3844 -96.5017 186° South 343 395 36,000  Level Kansas City Center
Sat 01:49:38 PM 36.2956 -96.5125 186° South 329 379 36,000  Level Kansas City Center
Sat 01:50:40 PM 36.2047 -96.5231 185° South 326 375 36,000  Level Kansas City Center
Sat 01:51:41 PM 36.1133 -96.5333 185° South 329 379 36,000  Level Kansas City Center
Sat 01:52:43 PM 36.0072 -96.5464 186° South 332 382 36,000  Level Kansas City Center
Sat 01:53:45 PM 35.9125 -96.5572 185° South 338 389 36,000  Level Kansas City Center
Sat 01:54:46 PM 35.8164 -96.5681 185° South 342 394 36,000  Level Kansas City Center
Sat 01:55:48 PM 35.7208 -96.5794 186° South 344 396 36,000  Level Kansas City Center
Sat 01:56:50 PM 35.6247 -96.5911 186° South 345 397 36,000  Level Kansas City Center
Sat 01:57:34 PM 35.5481 -96.5997 185° South 348 400 36,000  Level Fort Worth Center
Sat 01:58:36 PM 35.4519 -96.6122 186° South 347 399 36,000  Level Fort Worth Center
Sat 01:59:38 PM 35.3542 -96.6236 185° South 351 404 36,000  Level Fort Worth Center
Sat 02:00:40 PM 35.2575 -96.6347 185° South 349 402 36,000  Level Fort Worth Center
Sat 02:01:42 PM 35.1597 -96.6467 186° South 351 404 36,000  Level Fort Worth Center
Sat 02:02:44 PM 35.0617 -96.6586 186° South 352 405 36,000  Level Fort Worth Center
Sat 02:03:46 PM 34.9436 -96.6719 185° South 355 409 36,000  Level Fort Worth Center
Sat 02:04:48 PM 34.8469 -96.6819 185° South 350 403 36,000  Level Fort Worth Center
Sat 02:05:49 PM 34.7481 -96.6931 185° South 354 407 36,000  Level Fort Worth Center
Sat 02:06:51 PM 34.6472 -96.7050 186° South 359 413 36,000  Level Fort Worth Center
Sat 02:07:53 PM 34.5483 -96.7172 186° South 356 410 36,000  Level Fort Worth Center
Sat 02:08:55 PM 34.4494 -96.7269 185° South 355 409 36,000  Level Fort Worth Center
Sat 02:09:57 PM 34.3514 -96.7408 187° South 354 407 36,000  Level Fort Worth Center
Sat 02:10:59 PM 34.2325 -96.7531 185° South 357 411 36,000  Level Fort Worth Center
Sat 02:12:01 PM 34.1342 -96.7642 185° South 356 410 36,000  Level Fort Worth Center
Sat 02:13:03 PM 34.0419 -96.7750 186° South 359 413 36,000  Level Fort Worth Center
Sat 02:14:05 PM 33.9428 -96.7858 185° South 359 413 36,000  Level Fort Worth Center
Sat 02:15:07 PM 33.8211 -96.7892 181° South 366 421 36,000  Level Fort Worth Center
Sat 02:16:09 PM 33.7156 -96.7747 174° South 380 437 36,000  Level Fort Worth Center
Sat 02:17:11 PM 33.6100 -96.7617 174° South 381 438 36,000  Level Fort Worth Center
Sat 02:18:13 PM 33.5042 -96.7492 174° South 380 437 36,000  Level Fort Worth Center
Sat 02:19:15 PM 33.3989 -96.7361 174° South 380 437 36,000 -242 Level Fort Worth Center
Sat 02:20:17 PM 33.2931 -96.7244 175° South 380 437 35,500 -484 Descending Fort Worth Center
Sat 02:21:19 PM 33.1883 -96.7108 174° South 377 434 35,000 -242 Descending Fort Worth Center
Sat 02:22:21 PM 33.0600 -96.6947 174° South 384 442 35,000 -386 Level Fort Worth Center
Sat 02:24:10 PM 32.8636 -96.6719 174° South 392 451 33,900 -698 Descending Houston Center
Sat 02:25:13 PM 32.7547 -96.6586 174° South 390 449 33,000 -432 Descending Houston Center
Sat 02:26:15 PM 32.6411 -96.6469 175° South 401 461 33,000  Level Houston Center
Sat 02:27:17 PM 32.5244 -96.6319 174° South 415 478 33,000  Level Houston Center
Sat 02:28:19 PM 32.4089 -96.6186 174° South 412 474 33,000  Level Houston Center
Sat 02:29:21 PM 32.2953 -96.6042 174° South 407 468 33,000 -532 Level Houston Center
Sat 02:30:23 PM 32.1644 -96.5897 175° South 401 461 31,900 -968 Descending Houston Center
Sat 02:31:25 PM 32.0547 -96.5761 174° South 394 453 31,000 -871 Descending Houston Center
Sat 02:32:27 PM 31.9528 -96.5644 174° South 368 423 30,100 -912 Descending Houston Center
Sat 02:33:30 PM 31.8536 -96.5531 174° South 357 411 29,100 -528 Descending Houston Center
Sat 02:34:32 PM 31.7511 -96.5417 175° South 365 420 29,000 -48 Descending Houston Center
Sat 02:35:34 PM 31.6439 -96.5292 174° South 379 436 29,000  Level Houston Center
Sat 02:36:36 PM 31.5336 -96.5161 174° South 391 450 29,000 -48 Level Houston Center
Sat 02:37:38 PM 31.4042 -96.4606 160° South 416 479 28,900 -677 Descending Houston Center
Sat 02:38:40 PM 31.2947 -96.3906 151° Southeast 439 505 27,600 -1,306 Descending Houston Center
Sat 02:39:42 PM 31.1864 -96.3228 152° Southeast 435 501 26,200 -1,306 Descending Houston Center
Sat 02:40:44 PM 31.0772 -96.2533 151° Southeast 439 505 24,900 -1,104 Descending Houston Center
Sat 02:41:47 PM 30.9647 -96.1825 152° Southeast 450 518 23,900 -1,200 Descending Houston Center
Sat 02:42:49 PM 30.8558 -96.1139 152° Southeast 442 509 22,400 -2,177 Descending Houston Center
Sat 02:43:51 PM 30.7486 -96.0469 152° Southeast 414 476 19,400 -2,855 Descending Houston Center
Sat 02:44:53 PM 30.6458 -95.9822 152° Southeast 391 450 16,500 -2,824 Descending Houston Center
Sat 02:44:59 PM 30.6353 -95.9778 160° South 388 447 16,200 -2,323 Descending Houston Center
Sat 02:45:55 PM 30.5500 -95.9219 151° Southeast 392 451 14,100 -2,581 Descending Houston Center
Sat 02:46:25 PM 30.4953 -95.8897 153° Southeast 391 450 12,500 -2,032 Descending Houston Center
Sat 02:46:57 PM 30.4561 -95.8650 151° Southeast 382 440 12,000 -806 Descending Houston Center
Sat 02:47:32 PM 30.4139 -95.8217 138° Southeast 303 349 11,600 -774 Descending Houston Center
Sat 02:47:59 PM 30.3908 -95.7967 137° Southeast 324 373 11,200 -1,071 Descending Houston Center
Sat 02:48:28 PM 30.3583 -95.7628 138° Southeast 290 334 10,600 -871 Descending Houston Center
Sat 02:49:01 PM 30.3317 -95.7361 139° Southeast 291 335 10,300 -600 Descending Houston Center
Sat 02:49:28 PM 30.2983 -95.7019 138° Southeast 287 330 10,000 -381 Descending Houston Center
Sat 02:50:04 PM 30.2733 -95.6733 135° Southeast 287 330 9,900 -689 Descending Houston Center
Sat 02:50:29 PM 30.2383 -95.6414 142° Southeast 284 327 9,300 -1,355 Descending Houston Center
Sat 02:51:06 PM 30.2053 -95.6031 135° Southeast 276 318 8,500 -1,475 Descending Houston Center
Sat 02:51:30 PM 30.1783 -95.5783 142° Southeast 273 314 7,800 -1,452 Descending Houston Center
Sat 02:52:08 PM 30.1472 -95.5425 135° Southeast 279 321 7,000 -1,429 Descending Houston Center
Sat 02:52:33 PM 30.1225 -95.5172 139° Southeast 273 314 6,300 -1,065 Descending Houston Center
Sat 02:53:10 PM 30.1058 -95.4761 115° Southeast 270 311 5,900 -273 Descending Houston Center
Sat 02:53:39 PM 30.1064 -95.4322 89° East 266 306 6,000 194 Climbing Houston Center
Sat 02:54:12 PM 30.1061 -95.3908 90° East 266 306 6,100 -98 Climbing Houston Center
Sat 02:54:40 PM 30.1061 -95.3381 90° East 283 326 5,900  Descending Houston Center
Sat 02:55:14 PM 30.1056 -95.3014 91° East 277 319 6,100 -436 Climbing Houston Center
Sat 02:55:35 PM 30.1050 -95.2586 91° East 286 329 5,500 -1,161 Descending Houston Center
Sat 02:56:16 PM 30.1061 -95.2119 88° East 278 320 4,900 -1,164 Descending Houston Center
Sat 02:56:42 PM 30.1067 -95.1617 89° East 261 300 4,200 -871 Descending Houston Center
Sat 02:57:18 PM 30.1061 -95.1153 91° East 253 291 4,000 -321 Descending Houston Center
Sat 02:57:38 PM 30.1064 -95.0917 89° East 224 258 3,900 -286 Descending Houston Center
Sat 02:58:21 PM 30.0997 -95.0447 99° East 229 264 3,700 -627 Descending Houston Center
Sat 02:58:45 PM 30.0758 -95.0328 157° South 203 234 3,200 -871 Descending Houston Center
Sat 02:59:23 PM 30.0472 -95.0339 182° South 208 239 2,800 -873 Descending Houston Center
Sat 02:59:40 PM 30.0297 -95.0361 186° South 188 216 2,400 -677 Descending Houston Center
Sat 03:00:25 PM 30.0100 -95.0700 236° Southwest 206 237 2,100 -393 Descending Houston Center
Sat 03:00:41 PM 30.0081 -95.0967 265° West 215 247 2,000  Descending Houston Center
Sat 03:01:27 PM 30.0067 -95.1372 268° West 211 243 2,100  Climbing Houston Center
Sat 03:01:42 PM 30.0083 -95.1667 274° West 225 259 2,000 -97 Descending Houston Center
Sat 03:02:29 PM 30.0072 -95.2189 269° West 213 245 2,000 -290 Level Houston Center
Sat 03:02:44 PM 30.0064 -95.2369 267° West 212 244 1,700 -774 Descending Houston Center
Sat 03:03:31 PM 30.0058 -95.2775 269° West 197 227 1,200 -885 Descending Houston Center
Sat 03:03:45 PM 30.0072 -95.2897 277° West 144 166 800 -774 Descending Houston Center
Sat 03:04:33 PM 30.0069 -95.3211 269° West 158 182 400 -500 Descending Houston Center

Login

Don't have an account? Register now (free) for customized features, flight alerts, and more!